Time;durP1;ratioP1;P1;durP2;ratioP2;P2;SDS_P1;SDS_P2;PMS_P1;PMS_P2;Temp;Humidity;BMP_temperature;BMP_pressure;BME280_temperature;BME280_humidity;BME280_pressure;Samples;Min_cycle;Max_cycle;Signal;HPM_P1;HPM_P2
2021/07/26 00:02:12;;;;;;;108.68;15.23;;;;;;;;;;4990192;28;20027;-37
2021/07/26 00:04:39;;;;;;;102.18;14.40;;;;;;;;;;4991696;28;20065;-44
2021/07/26 00:07:06;;;;;;;106.75;17.63;;;;;;;;;;4986546;28;20037;-36
2021/07/26 00:09:34;;;;;;;111.55;16.45;;;;;;;;;;4991834;28;20025;-42
2021/07/26 00:12:01;;;;;;;109.70;14.80;;;;;;;;;;4990059;28;20141;-35
2021/07/26 00:14:28;;;;;;;90.05;13.95;;;;;;;;;;4988542;28;20104;-36
2021/07/26 00:16:55;;;;;;;100.03;13.85;;;;;;;;;;4988591;28;20113;-38
2021/07/26 00:19:22;;;;;;;97.57;15.13;;;;;;;;;;4989740;28;20030;-36
2021/07/26 00:21:49;;;;;;;103.07;15.80;;;;;;;;;;4986159;28;20026;-33
2021/07/26 00:24:20;;;;;;;78.93;14.43;;;;;;;;;;4988081;28;20030;-39
2021/07/26 00:26:48;;;;;;;98.32;14.88;;;;;;;;;;4989286;28;20019;-33
2021/07/26 00:29:15;;;;;;;80.68;15.20;;;;;;;;;;4992347;28;20081;-38
2021/07/26 00:31:42;;;;;;;96.28;13.55;;;;;;;;;;4987267;28;20027;-33
2021/07/26 00:34:14;;;;;;;83.25;12.88;;;;;;;;;;4987071;28;20038;-37
2021/07/26 00:36:41;;;;;;;;;;;;;;;;;;4986646;28;20026;-35
2021/07/26 00:39:09;;;;;;;82.60;13.18;;;;;;;;;;4987321;28;20366;-35
2021/07/26 00:41:36;;;;;;;86.18;14.90;;;;;;;;;;4989917;28;20026;-35
2021/07/26 00:44:03;;;;;;;93.70;16.00;;;;;;;;;;4977680;28;20121;-34
2021/07/26 00:46:31;;;;;;;93.45;14.52;;;;;;;;;;4989214;28;20042;-36
2021/07/26 00:48:58;;;;;;;98.80;15.43;;;;;;;;;;4989031;28;20035;-35
2021/07/26 00:51:25;;;;;;;94.40;15.40;;;;;;;;;;4992317;28;20089;-37
2021/07/26 00:53:53;;;;;;;101.80;15.65;;;;;;;;;;4991464;28;20069;-37
2021/07/26 00:56:20;;;;;;;102.32;14.60;;;;;;;;;;4992009;28;20398;-35
2021/07/26 00:58:48;;;;;;;92.15;15.68;;;;;;;;;;4990907;28;20045;-34
2021/07/26 01:01:17;;;;;;;91.60;14.13;;;;;;;;;;4991237;28;20026;-36
2021/07/26 01:03:45;;;;;;;87.03;15.50;;;;;;;;;;4986559;28;20072;-35
2021/07/26 01:06:12;;;;;;;84.30;13.35;;;;;;;;;;4989811;28;20598;-35
2021/07/26 01:08:40;;;;;;;73.85;13.48;;;;;;;;;;4984249;28;20125;-40
2021/07/26 01:11:07;;;;;;;71.13;13.50;;;;;;;;;;4986339;28;20105;-45
2021/07/26 01:13:35;;;;;;;81.55;14.82;;;;;;;;;;4990982;28;20506;-36
2021/07/26 01:16:03;;;;;;;87.70;14.63;;;;;;;;;;4991066;28;20092;-36
2021/07/26 01:18:31;;;;;;;79.07;13.35;;;;;;;;;;4991845;28;20019;-36
2021/07/26 01:20:57;;;;;;;76.93;12.98;;;;;;;;;;4990841;28;20049;-38
2021/07/26 01:23:25;;;;;;;85.55;14.05;;;;;;;;;;4992902;28;20022;-39
2021/07/26 01:25:53;;;;;;;75.97;12.45;;;;;;;;;;4992006;28;20498;-45
2021/07/26 01:28:21;;;;;;;67.18;12.07;;;;;;;;;;4992211;28;20031;-34
2021/07/26 01:30:49;;;;;;;78.22;13.70;;;;;;;;;;4992265;28;20046;-36
2021/07/26 01:33:17;;;;;;;82.35;12.82;;;;;;;;;;4992410;28;20032;-38
2021/07/26 01:35:44;;;;;;;71.05;12.40;;;;;;;;;;4992582;28;20022;-37
2021/07/26 01:38:12;;;;;;;70.55;12.23;;;;;;;;;;4992183;28;20489;-34
2021/07/26 01:40:40;;;;;;;60.55;10.90;;;;;;;;;;4992388;28;20030;-36
2021/07/26 01:43:09;;;;;;;71.22;12.68;;;;;;;;;;4992072;28;20097;-32
2021/07/26 01:45:37;;;;;;;65.75;11.57;;;;;;;;;;4992483;28;20029;-38
2021/07/26 01:48:16;;;;;;;64.25;11.43;;;;;;;;;;4992159;28;20557;-35
2021/07/26 01:50:48;;;;;;;68.80;12.45;;;;;;;;;;4992211;28;20031;-36
2021/07/26 01:53:15;;;;;;;51.38;10.75;;;;;;;;;;4991570;28;20026;-40
2021/07/26 01:55:42;;;;;;;56.45;11.65;;;;;;;;;;4992508;28;20018;-33
2021/07/26 01:58:09;;;;;;;57.70;11.68;;;;;;;;;;4989792;28;20106;-33
2021/07/26 02:00:36;;;;;;;67.03;11.63;;;;;;;;;;4992048;28;20388;-33
2021/07/26 02:03:04;;;;;;;52.40;10.70;;;;;;;;;;4991181;28;20023;-35
2021/07/26 02:05:31;;;;;;;49.35;10.95;;;;;;;;;;4991714;28;20114;-38
2021/07/26 02:07:58;;;;;;;56.40;9.93;;;;;;;;;;4991809;28;20042;-37
2021/07/26 02:10:25;;;;;;;63.08;11.18;;;;;;;;;;4990762;28;20386;-34
2021/07/26 02:12:52;;;;;;;61.05;9.73;;;;;;;;;;4990641;28;20022;-37
2021/07/26 02:15:19;;;;;;;42.17;9.90;;;;;;;;;;4990639;28;20022;-38
2021/07/26 02:17:46;;;;;;;56.15;10.45;;;;;;;;;;4990689;28;20485;-40
2021/07/26 02:20:13;;;;;;;60.15;10.45;;;;;;;;;;4990397;28;20053;-35
2021/07/26 02:22:40;;;;;;;56.78;10.50;;;;;;;;;;4991126;28;20022;-34
2021/07/26 02:25:07;;;;;;;49.25;9.27;;;;;;;;;;4990081;28;20422;-34
2021/07/26 02:27:34;;;;;;;56.25;9.10;;;;;;;;;;4989933;28;20037;-35
2021/07/26 02:30:01;;;;;;;52.20;10.57;;;;;;;;;;4991843;28;20022;-36
2021/07/26 02:32:28;;;;;;;48.65;9.13;;;;;;;;;;4991462;28;20085;-40
2021/07/26 02:34:55;;;;;;;47.95;9.40;;;;;;;;;;4991826;28;20093;-39
2021/07/26 02:37:23;;;;;;;46.28;8.68;;;;;;;;;;4991266;28;20027;-37
2021/07/26 02:39:49;;;;;;;39.60;8.98;;;;;;;;;;4991789;28;20023;-35
2021/07/26 02:42:17;;;;;;;46.13;8.70;;;;;;;;;;4990970;28;20048;-35
2021/07/26 02:44:44;;;;;;;45.95;9.23;;;;;;;;;;4991826;28;20026;-38
2021/07/26 02:47:11;;;;;;;48.80;8.88;;;;;;;;;;4990820;28;20042;-35
2021/07/26 02:49:37;;;;;;;40.65;8.43;;;;;;;;;;4991689;28;20101;-38
2021/07/26 02:52:05;;;;;;;43.15;8.77;;;;;;;;;;4990439;28;20042;-35
2021/07/26 02:54:32;;;;;;;33.42;8.20;;;;;;;;;;4991469;28;20668;-37
2021/07/26 02:56:59;;;;;;;35.28;6.97;;;;;;;;;;4990008;28;20036;-35
2021/07/26 02:59:26;;;;;;;40.88;8.32;;;;;;;;;;4991495;28;20418;-33
2021/07/26 03:01:53;;;;;;;33.47;6.95;;;;;;;;;;4989971;28;20368;-35
2021/07/26 03:04:20;;;;;;;33.60;7.03;;;;;;;;;;4991343;28;20046;-33
2021/07/26 03:06:47;;;;;;;35.97;7.72;;;;;;;;;;4990292;28;20031;-35
2021/07/26 03:09:14;;;;;;;31.88;7.18;;;;;;;;;;4993432;28;20033;-38
2021/07/26 03:11:41;;;;;;;35.97;7.35;;;;;;;;;;4994969;28;20034;-37
2021/07/26 03:14:08;;;;;;;33.80;6.35;;;;;;;;;;4994877;28;20109;-34
2021/07/26 03:16:35;;;;;;;31.50;6.55;;;;;;;;;;4994486;28;20042;-35
2021/07/26 03:19:02;;;;;;;25.05;6.78;;;;;;;;;;4994202;28;20033;-33
2021/07/26 03:21:29;;;;;;;38.03;7.43;;;;;;;;;;4994642;28;20390;-36
2021/07/26 03:23:56;;;;;;;28.83;6.45;;;;;;;;;;4994461;28;20022;-34
2021/07/26 03:26:23;;;;;;;21.20;6.43;;;;;;;;;;4994875;28;20104;-36
2021/07/26 03:28:50;;;;;;;25.85;6.10;;;;;;;;;;4993437;28;20081;-34
2021/07/26 03:31:17;;;;;;;30.05;6.95;;;;;;;;;;4994704;28;20022;-34
2021/07/26 03:33:45;;;;;;;28.52;5.82;;;;;;;;;;4994757;28;20108;-37
2021/07/26 03:36:14;;;;;;;19.67;5.55;;;;;;;;;;4993680;28;20037;-33
2021/07/26 03:38:42;;;;;;;27.48;6.30;;;;;;;;;;4994613;28;20037;-35
2021/07/26 03:41:09;;;;;;;25.13;5.80;;;;;;;;;;4992775;28;20022;-35
2021/07/26 03:43:36;;;;;;;25.13;5.50;;;;;;;;;;4994553;28;20023;-36
2021/07/26 03:46:03;;;;;;;25.38;5.85;;;;;;;;;;4993944;28;20027;-33
2021/07/26 03:48:30;;;;;;;26.70;6.20;;;;;;;;;;4993571;28;20161;-36
2021/07/26 03:50:57;;;;;;;21.73;5.10;;;;;;;;;;4992849;28;20031;-34
2021/07/26 03:53:24;;;;;;;25.83;5.70;;;;;;;;;;4994401;28;20101;-35
2021/07/26 03:55:51;;;;;;;24.63;5.43;;;;;;;;;;4993790;28;20065;-36
2021/07/26 03:58:18;;;;;;;18.55;5.85;;;;;;;;;;4994666;28;20050;-37
2021/07/26 04:00:45;;;;;;;30.48;5.60;;;;;;;;;;4994274;28;20034;-35
2021/07/26 04:03:24;;;;;;;23.67;5.78;;;;;;;;;;4993979;28;20545;-35
2021/07/26 04:06:05;;;;;;;26.00;5.28;;;;;;;;;;4993017;28;20080;-36
2021/07/26 04:08:36;;;;;;;19.45;5.38;;;;;;;;;;4994155;28;20376;-36
2021/07/26 04:11:29;;;;;;;22.08;5.40;;;;;;;;;;4993772;28;20029;-39
2021/07/26 04:14:00;;;;;;;25.35;5.65;;;;;;;;;;4993854;28;20466;-35
2021/07/26 04:16:27;;;;;;;18.67;5.00;;;;;;;;;;4993370;28;20104;-36
2021/07/26 04:18:56;;;;;;;24.70;5.40;;;;;;;;;;4993762;28;20029;-35
2021/07/26 04:21:33;;;;;;;20.30;4.78;;;;;;;;;;4992701;28;20529;-43
2021/07/26 04:24:02;;;;;;;17.55;4.90;;;;;;;;;;4992863;28;20030;-37
2021/07/26 04:26:29;;;;;;;19.35;4.82;;;;;;;;;;4993456;28;20046;-38
2021/07/26 04:28:57;;;;;;;17.73;4.70;;;;;;;;;;4992185;28;20026;-35
2021/07/26 04:31:24;;;;;;;20.25;4.70;;;;;;;;;;4992278;28;20029;-37
2021/07/26 04:33:51;;;;;;;20.88;4.82;;;;;;;;;;4993130;28;20382;-37
2021/07/26 04:36:18;;;;;;;15.35;4.78;;;;;;;;;;4993611;28;20028;-39
2021/07/26 04:38:45;;;;;;;17.23;4.80;;;;;;;;;;4990656;28;20398;-37
2021/07/26 04:41:12;;;;;;;15.52;4.35;;;;;;;;;;4992463;28;20387;-39
2021/07/26 04:43:39;;;;;;;18.17;4.28;;;;;;;;;;4992186;28;20026;-34
2021/07/26 04:46:09;;;;;;;21.75;4.78;;;;;;;;;;4993308;28;20030;-39
2021/07/26 04:48:36;;;;;;;14.98;4.20;;;;;;;;;;4992876;28;20486;-36
2021/07/26 04:51:03;;;;;;;16.38;4.28;;;;;;;;;;4993266;28;20543;-37
2021/07/26 04:53:33;;;;;;;14.88;3.67;;;;;;;;;;4992652;28;20037;-37
2021/07/26 04:56:00;;;;;;;18.42;4.15;;;;;;;;;;4993243;28;20026;-36
2021/07/26 04:58:27;;;;;;;11.13;3.58;;;;;;;;;;4992541;28;20072;-37
2021/07/26 05:00:54;;;;;;;12.52;3.90;;;;;;;;;;4991686;28;20455;-33
2021/07/26 05:03:21;;;;;;;15.48;4.80;;;;;;;;;;4992476;28;20018;-41
2021/07/26 05:05:48;;;;;;;11.57;3.33;;;;;;;;;;4992917;28;20034;-34
2021/07/26 05:08:15;;;;;;;15.90;3.92;;;;;;;;;;4991874;28;20505;-35
2021/07/26 05:10:49;;;;;;;14.00;4.07;;;;;;;;;;4990856;28;20038;-37
2021/07/26 05:13:16;;;;;;;14.38;3.88;;;;;;;;;;4992255;28;20038;-35
2021/07/26 05:15:43;;;;;;;15.52;3.72;;;;;;;;;;4992242;28;20023;-34
2021/07/26 05:18:10;;;;;;;11.13;4.07;;;;;;;;;;4992538;28;20042;-39
2021/07/26 05:20:38;;;;;;;14.70;4.32;;;;;;;;;;4991530;28;20022;-36
2021/07/26 05:23:09;;;;;;;16.95;3.72;;;;;;;;;;4992436;28;20018;-33
2021/07/26 05:25:36;;;;;;;13.07;3.28;;;;;;;;;;4992251;28;20096;-37
2021/07/26 05:28:03;;;;;;;14.93;3.65;;;;;;;;;;4992564;28;20443;-36
2021/07/26 05:30:30;;;;;;;10.27;3.30;;;;;;;;;;4991028;28;20026;-36
2021/07/26 05:32:57;;;;;;;10.88;2.65;;;;;;;;;;4992631;28;20497;-34
2021/07/26 05:35:24;;;;;;;11.63;3.42;;;;;;;;;;4992242;28;20106;-35
2021/07/26 05:37:51;;;;;;;10.65;3.10;;;;;;;;;;4992679;28;20033;-38
2021/07/26 05:40:18;;;;;;;11.90;3.55;;;;;;;;;;4992342;28;20023;-37
2021/07/26 05:42:45;;;;;;;12.25;3.30;;;;;;;;;;4993116;28;20442;-34
2021/07/26 05:45:13;;;;;;;8.77;3.00;;;;;;;;;;4992198;28;20081;-37
2021/07/26 05:47:40;;;;;;;10.25;3.10;;;;;;;;;;4992327;28;20100;-33
2021/07/26 05:50:07;;;;;;;11.85;3.53;;;;;;;;;;4992850;28;20397;-36
2021/07/26 05:52:34;;;;;;;10.13;2.60;;;;;;;;;;4991881;28;20030;-36
2021/07/26 05:55:02;;;;;;;8.57;3.03;;;;;;;;;;4992284;28;20022;-33
2021/07/26 05:57:33;;;;;;;11.45;3.33;;;;;;;;;;4991905;28;20026;-41
2021/07/26 06:00:00;;;;;;;11.77;2.92;;;;;;;;;;4992940;28;20368;-36
2021/07/26 06:02:27;;;;;;;8.90;2.83;;;;;;;;;;4992071;28;20482;-37
2021/07/26 06:04:54;;;;;;;11.13;3.33;;;;;;;;;;4992012;28;20028;-38
2021/07/26 06:07:21;;;;;;;10.38;3.13;;;;;;;;;;4991806;28;20061;-34
2021/07/26 06:09:48;;;;;;;11.48;3.00;;;;;;;;;;4992486;28;20586;-36
2021/07/26 06:12:15;;;;;;;8.77;2.88;;;;;;;;;;4991856;28;20030;-37
2021/07/26 06:14:42;;;;;;;10.57;2.97;;;;;;;;;;4992334;28;20018;-34
2021/07/26 06:17:09;;;;;;;8.55;2.78;;;;;;;;;;4991543;28;20166;-34
2021/07/26 06:19:36;;;;;;;7.05;2.58;;;;;;;;;;4992289;28;20153;-36
2021/07/26 06:22:03;;;;;;;5.47;2.50;;;;;;;;;;4992265;28;20022;-38
2021/07/26 06:24:30;;;;;;;9.02;2.67;;;;;;;;;;4991810;28;20018;-32
2021/07/26 06:26:57;;;;;;;7.47;2.65;;;;;;;;;;4992040;28;20177;-38
2021/07/26 06:29:25;;;;;;;10.55;2.85;;;;;;;;;;4991871;28;20045;-36
2021/07/26 06:31:52;;;;;;;7.82;2.80;;;;;;;;;;4991982;28;20034;-40
2021/07/26 06:34:19;;;;;;;7.40;2.70;;;;;;;;;;4991591;28;20545;-38
2021/07/26 06:36:46;;;;;;;5.03;1.88;;;;;;;;;;4992020;28;20117;-37
2021/07/26 06:39:13;;;;;;;9.73;2.40;;;;;;;;;;4990337;28;20149;-35
2021/07/26 06:41:40;;;;;;;9.07;2.40;;;;;;;;;;4992156;28;20099;-38
2021/07/26 06:44:08;;;;;;;9.38;3.38;;;;;;;;;;4994301;28;20026;-37
2021/07/26 06:46:35;;;;;;;8.43;2.15;;;;;;;;;;4995392;28;20061;-35
2021/07/26 06:49:02;;;;;;;7.88;2.42;;;;;;;;;;4995071;28;20035;-38
2021/07/26 06:51:29;;;;;;;6.00;2.55;;;;;;;;;;4994906;28;20113;-34
2021/07/26 06:53:56;;;;;;;9.73;2.75;;;;;;;;;;4995764;28;20026;-35
2021/07/26 06:56:23;;;;;;;8.32;2.45;;;;;;;;;;4993968;28;20475;-34
2021/07/26 06:58:50;;;;;;;4.85;2.08;;;;;;;;;;4995810;28;20037;-36
2021/07/26 07:01:17;;;;;;;9.07;3.05;;;;;;;;;;4995292;28;20057;-36
2021/07/26 07:03:45;;;;;;;10.52;2.65;;;;;;;;;;4995803;28;20430;-38
2021/07/26 07:06:16;;;;;;;6.65;2.15;;;;;;;;;;4994786;28;20445;-40
2021/07/26 07:08:43;;;;;;;7.65;2.13;;;;;;;;;;4995772;28;20054;-42
2021/07/26 07:11:13;;;;;;;7.03;2.50;;;;;;;;;;4995006;28;20471;-41
2021/07/26 07:13:42;;;;;;;12.68;2.35;;;;;;;;;;4995206;28;20050;-40
2021/07/26 07:16:12;;;;;;;5.45;1.65;;;;;;;;;;4994571;28;20473;-39
2021/07/26 07:18:39;;;;;;;5.05;1.65;;;;;;;;;;4994837;28;20113;-37
2021/07/26 07:21:07;;;;;;;5.65;2.33;;;;;;;;;;4994580;28;20058;-37
2021/07/26 07:23:34;;;;;;;6.70;2.03;;;;;;;;;;4994414;28;20033;-34
2021/07/26 07:26:01;;;;;;;4.75;1.80;;;;;;;;;;4994641;28;20026;-32
2021/07/26 07:28:28;;;;;;;6.72;1.80;;;;;;;;;;4995044;28;20550;-35
2021/07/26 07:30:55;;;;;;;5.28;2.10;;;;;;;;;;4995104;28;20023;-35
2021/07/26 07:33:22;;;;;;;4.93;1.88;;;;;;;;;;4994354;28;20438;-42
2021/07/26 07:35:49;;;;;;;5.28;2.03;;;;;;;;;;4994789;28;20058;-42
2021/07/26 07:38:16;;;;;;;4.68;1.95;;;;;;;;;;4994639;28;20022;-40
2021/07/26 07:40:43;;;;;;;4.10;1.73;;;;;;;;;;4995043;28;20021;-36
2021/07/26 07:43:10;;;;;;;6.43;2.35;;;;;;;;;;4994305;28;20022;-35
2021/07/26 07:45:37;;;;;;;4.45;1.77;;;;;;;;;;4994648;28;20029;-40
2021/07/26 07:48:04;;;;;;;7.03;2.53;;;;;;;;;;4994178;28;20035;-32
2021/07/26 07:50:31;;;;;;;5.95;1.85;;;;;;;;;;4994690;28;20018;-36
2021/07/26 07:52:58;;;;;;;4.55;1.95;;;;;;;;;;4993935;28;20026;-38
2021/07/26 07:55:26;;;;;;;5.88;2.00;;;;;;;;;;4994418;28;20528;-35
2021/07/26 07:57:53;;;;;;;6.05;2.10;;;;;;;;;;4993519;28;20030;-35
2021/07/26 08:00:21;;;;;;;5.60;1.90;;;;;;;;;;4994243;28;20029;-38
2021/07/26 08:02:49;;;;;;;5.13;1.90;;;;;;;;;;4993583;28;20432;-35
2021/07/26 08:05:17;;;;;;;5.63;1.65;;;;;;;;;;4994440;28;20395;-34
2021/07/26 08:07:44;;;;;;;4.80;1.75;;;;;;;;;;4993999;28;20038;-41
2021/07/26 08:10:11;;;;;;;3.80;1.80;;;;;;;;;;4993638;28;20035;-40
2021/07/26 08:12:38;;;;;;;6.35;1.67;;;;;;;;;;4993989;28;20462;-36
2021/07/26 08:15:06;;;;;;;6.25;1.92;;;;;;;;;;4993364;28;20029;-39
2021/07/26 08:17:33;;;;;;;4.35;1.88;;;;;;;;;;4992483;28;20188;-36
2021/07/26 08:20:00;;;;;;;5.57;1.63;;;;;;;;;;4993601;28;20523;-36
2021/07/26 08:22:27;;;;;;;4.82;1.83;;;;;;;;;;4976563;28;20026;-34
2021/07/26 08:24:54;;;;;;;5.03;1.88;;;;;;;;;;4993491;28;20027;-36
2021/07/26 08:27:21;;;;;;;5.45;1.80;;;;;;;;;;4993622;28;20069;-36
2021/07/26 08:29:48;;;;;;;6.40;1.75;;;;;;;;;;4993562;28;20093;-36
2021/07/26 08:32:15;;;;;;;7.13;1.73;;;;;;;;;;4993925;28;20050;-37
2021/07/26 08:34:42;;;;;;;6.05;2.00;;;;;;;;;;4993344;28;20085;-38
2021/07/26 08:37:09;;;;;;;6.25;1.70;;;;;;;;;;4993372;28;20026;-36
2021/07/26 08:39:37;;;;;;;3.17;1.52;;;;;;;;;;4993233;28;20456;-35
2021/07/26 08:42:05;;;;;;;5.22;1.85;;;;;;;;;;4993767;28;20129;-36
2021/07/26 08:44:35;;;;;;;3.85;1.55;;;;;;;;;;4992094;28;20076;-37
2021/07/26 08:47:04;;;;;;;3.97;1.58;;;;;;;;;;4992916;28;20118;-34
2021/07/26 08:49:32;;;;;;;5.57;1.67;;;;;;;;;;4993795;28;20018;-35
2021/07/26 08:52:00;;;;;;;4.82;1.77;;;;;;;;;;4993077;28;20077;-37
2021/07/26 08:54:30;;;;;;;3.05;1.25;;;;;;;;;;4993667;28;20022;-34
2021/07/26 08:56:58;;;;;;;4.53;1.50;;;;;;;;;;4992456;28;20030;-35
2021/07/26 08:59:25;;;;;;;4.53;2.22;;;;;;;;;;4993011;28;20125;-33
2021/07/26 09:01:55;;;;;;;3.63;1.50;;;;;;;;;;4992511;28;20101;-38
2021/07/26 09:04:22;;;;;;;4.68;1.60;;;;;;;;;;4993277;28;20026;-38
2021/07/26 09:06:52;;;;;;;4.03;1.52;;;;;;;;;;4991677;28;20026;-36
2021/07/26 09:09:20;;;;;;;2.50;1.40;;;;;;;;;;4993127;28;20026;-37
2021/07/26 09:11:47;;;;;;;1.90;1.23;;;;;;;;;;4991461;28;20527;-36
2021/07/26 09:14:33;;;;;;;4.95;1.80;;;;;;;;;;4992606;28;20046;-32
2021/07/26 09:17:00;;;;;;;2.72;1.30;;;;;;;;;;4991606;28;20050;-37
2021/07/26 09:19:29;;;;;;;3.47;1.27;;;;;;;;;;4992853;28;20025;-37
2021/07/26 09:21:56;;;;;;;4.95;1.77;;;;;;;;;;4990789;28;20049;-33
2021/07/26 09:24:25;;;;;;;3.00;1.50;;;;;;;;;;4992971;28;20025;-34
2021/07/26 09:26:52;;;;;;;3.15;1.58;;;;;;;;;;4991903;28;20108;-37
2021/07/26 09:29:37;;;;;;;3.78;1.40;;;;;;;;;;4992424;28;20033;-32
2021/07/26 09:32:05;;;;;;;2.00;1.13;;;;;;;;;;4992037;28;20169;-37
2021/07/26 09:34:37;;;;;;;3.20;1.20;;;;;;;;;;4992609;28;20150;-35
2021/07/26 09:37:16;;;;;;;3.65;1.33;;;;;;;;;;4992486;28;20460;-37
2021/07/26 09:39:43;;;;;;;3.47;1.30;;;;;;;;;;4992519;28;20096;-34
2021/07/26 09:42:27;;;;;;;2.47;1.23;;;;;;;;;;4992541;28;20018;-33
2021/07/26 09:44:54;;;;;;;2.25;1.13;;;;;;;;;;4992393;28;20031;-37
2021/07/26 09:47:22;;;;;;;2.47;1.00;;;;;;;;;;4992084;28;20080;-37
2021/07/26 09:49:50;;;;;;;2.75;1.33;;;;;;;;;;4991903;28;20502;-36
2021/07/26 09:52:21;;;;;;;1.75;1.00;;;;;;;;;;4991243;28;20151;-36
2021/07/26 09:54:52;;;;;;;2.90;1.13;;;;;;;;;;4992211;28;20084;-37
2021/07/26 09:57:23;;;;;;;2.75;1.45;;;;;;;;;;4992912;28;20018;-35
2021/07/26 09:59:50;;;;;;;2.53;1.13;;;;;;;;;;4992127;28;20057;-38
2021/07/26 10:02:18;;;;;;;1.83;1.13;;;;;;;;;;4992387;28;20535;-34
2021/07/26 10:04:46;;;;;;;2.25;1.10;;;;;;;;;;4992105;28;20084;-39
2021/07/26 10:07:14;;;;;;;4.03;1.40;;;;;;;;;;4992230;28;20065;-36
2021/07/26 10:09:42;;;;;;;2.92;1.00;;;;;;;;;;4990527;28;20026;-38
2021/07/26 10:12:15;;;;;;;2.35;0.80;;;;;;;;;;4992537;28;20483;-35
2021/07/26 10:14:42;;;;;;;2.30;1.00;;;;;;;;;;4991840;28;20053;-35
2021/07/26 10:17:09;;;;;;;1.58;1.08;;;;;;;;;;4991787;28;20081;-38
2021/07/26 10:19:37;;;;;;;3.78;1.10;;;;;;;;;;4995099;28;20033;-33
2021/07/26 10:22:05;;;;;;;1.95;1.05;;;;;;;;;;4996273;28;20030;-36
2021/07/26 10:24:40;;;;;;;3.83;1.08;;;;;;;;;;4995670;28;20025;-32
2021/07/26 10:27:33;;;;;;;3.55;1.00;;;;;;;;;;4995879;28;20094;-36
2021/07/26 10:30:01;;;;;;;2.47;1.10;;;;;;;;;;4993390;28;20100;-37
2021/07/26 10:32:31;;;;;;;4.25;1.10;;;;;;;;;;4995923;28;20031;-36
2021/07/26 10:35:05;;;;;;;2.80;1.15;;;;;;;;;;4995452;28;20023;-40
2021/07/26 10:37:41;;;;;;;2.30;1.10;;;;;;;;;;4992673;28;20069;-33
2021/07/26 10:40:26;;;;;;;7.18;1.17;;;;;;;;;;4985462;28;20030;-34
2021/07/26 10:42:54;;;;;;;4.13;1.20;;;;;;;;;;4983639;28;20089;-37
2021/07/26 10:45:33;;;;;;;1.65;1.00;;;;;;;;;;4987023;28;20022;-34
2021/07/26 10:48:18;;;;;;;2.25;0.75;;;;;;;;;;4990051;28;20034;-34
2021/07/26 10:50:46;;;;;;;2.08;0.90;;;;;;;;;;4995436;28;20030;-35
2021/07/26 10:53:33;;;;;;;2.40;1.10;;;;;;;;;;4979167;28;20023;-37
2021/07/26 10:56:07;;;;;;;1.30;0.85;;;;;;;;;;4975457;28;20027;-36
2021/07/26 10:58:42;;;;;;;2.28;1.00;;;;;;;;;;4973708;28;20090;-33
2021/07/26 11:01:18;;;;;;;1.75;0.82;;;;;;;;;;4973865;28;20043;-37
2021/07/26 11:03:45;;;;;;;2.55;1.45;;;;;;;;;;4974340;28;20050;-34
2021/07/26 11:06:32;;;;;;;2.58;1.00;;;;;;;;;;4974026;28;20030;-34
2021/07/26 11:09:21;;;;;;;4.10;0.95;;;;;;;;;;4973913;28;20039;-40
2021/07/26 11:11:49;;;;;;;3.03;1.00;;;;;;;;;;4978582;28;20034;-39
2021/07/26 11:14:16;;;;;;;1.42;0.80;;;;;;;;;;4991155;28;20515;-43
2021/07/26 11:16:55;;;;;;;2.60;1.10;;;;;;;;;;4986829;28;20058;-39
2021/07/26 11:19:41;;;;;;;2.85;1.08;;;;;;;;;;4975098;28;20086;-41
2021/07/26 11:22:08;;;;;;;2.42;0.90;;;;;;;;;;4991520;28;20483;-37
2021/07/26 11:24:41;;;;;;;3.83;1.27;;;;;;;;;;4991169;28;20026;-36
2021/07/26 11:27:28;;;;;;;4.20;1.00;;;;;;;;;;4993731;28;20037;-38
2021/07/26 11:29:56;;;;;;;2.95;1.00;;;;;;;;;;4992371;28;20030;-38
2021/07/26 11:32:23;;;;;;;8.25;1.30;;;;;;;;;;4995673;28;20096;-39
2021/07/26 11:34:54;;;;;;;5.28;1.15;;;;;;;;;;4993557;28;20105;-36
2021/07/26 11:37:29;;;;;;;4.25;1.00;;;;;;;;;;4991871;28;20662;-36
2021/07/26 11:40:00;;;;;;;2.22;0.90;;;;;;;;;;4993229;28;20030;-34
2021/07/26 11:42:29;;;;;;;2.55;0.88;;;;;;;;;;4988483;28;20088;-36
2021/07/26 11:44:56;;;;;;;3.03;0.80;;;;;;;;;;4993446;28;20018;-38
2021/07/26 11:47:37;;;;;;;4.15;1.00;;;;;;;;;;4993730;28;20030;-38
2021/07/26 11:50:06;;;;;;;5.18;1.00;;;;;;;;;;4990242;28;20054;-37
2021/07/26 11:52:33;;;;;;;5.22;0.98;;;;;;;;;;4994327;28;20065;-38
2021/07/26 11:55:00;;;;;;;3.58;0.88;;;;;;;;;;4993773;28;20506;-40
2021/07/26 11:57:29;;;;;;;10.40;0.82;;;;;;;;;;4993792;28;20096;-37
2021/07/26 11:59:57;;;;;;;9.73;1.00;;;;;;;;;;4993671;28;20053;-39
2021/07/26 12:02:26;;;;;;;6.88;0.90;;;;;;;;;;4989040;28;20022;-37
2021/07/26 12:04:54;;;;;;;3.83;0.80;;;;;;;;;;4989391;28;20030;-38
2021/07/26 12:07:40;;;;;;;1.92;0.70;;;;;;;;;;4993373;28;20049;-37
2021/07/26 12:10:07;;;;;;;1.40;1.00;;;;;;;;;;4979702;28;20113;-37
2021/07/26 12:12:37;;;;;;;2.47;0.85;;;;;;;;;;4992704;28;20025;-37
2021/07/26 12:15:23;;;;;;;3.00;0.80;;;;;;;;;;4991086;28;20490;-37
2021/07/26 12:18:05;;;;;;;3.22;0.73;;;;;;;;;;4991569;28;20050;-38
2021/07/26 12:20:33;;;;;;;4.22;0.90;;;;;;;;;;4993123;28;20027;-39
2021/07/26 12:23:10;;;;;;;6.20;0.77;;;;;;;;;;4993324;28;20118;-37
2021/07/26 12:25:43;;;;;;;3.65;0.70;;;;;;;;;;4987047;28;20033;-39
2021/07/26 12:28:10;;;;;;;1.98;0.68;;;;;;;;;;4990709;28;20046;-37
2021/07/26 12:30:43;;;;;;;3.45;0.90;;;;;;;;;;4991762;28;20030;-37
2021/07/26 12:33:11;;;;;;;3.10;0.90;;;;;;;;;;4993065;28;20022;-36
2021/07/26 12:35:38;;;;;;;2.70;0.70;;;;;;;;;;4992421;28;20019;-36
2021/07/26 12:38:17;;;;;;;3.95;1.00;;;;;;;;;;4991284;28;20034;-38
2021/07/26 12:41:03;;;;;;;2.03;0.75;;;;;;;;;;4989504;28;20426;-36
2021/07/26 12:43:30;;;;;;;1.95;0.60;;;;;;;;;;4990907;28;20077;-38
2021/07/26 12:45:57;;;;;;;2.03;0.90;;;;;;;;;;4993043;28;20037;-37
2021/07/26 12:48:25;;;;;;;3.08;0.75;;;;;;;;;;4991257;28;20034;-37
2021/07/26 12:50:52;;;;;;;1.77;0.70;;;;;;;;;;4992211;28;20058;-36
2021/07/26 12:53:19;;;;;;;3.30;0.65;;;;;;;;;;4989824;28;20026;-38
2021/07/26 12:55:47;;;;;;;6.32;0.90;;;;;;;;;;4991135;28;20022;-37
2021/07/26 12:58:18;;;;;;;2.40;1.08;;;;;;;;;;4991619;28;20390;-37
2021/07/26 13:00:45;;;;;;;3.22;0.80;;;;;;;;;;4991277;28;20030;-38
2021/07/26 13:03:13;;;;;;;2.65;0.95;;;;;;;;;;4996072;28;20015;-38
2021/07/26 13:05:43;;;;;;;3.17;0.70;;;;;;;;;;4996648;28;20033;-38
2021/07/26 13:08:11;;;;;;;1.48;0.60;;;;;;;;;;4971682;28;20065;-39
2021/07/26 13:10:39;;;;;;;3.25;0.77;;;;;;;;;;4987961;28;20085;-37
2021/07/26 13:13:07;;;;;;;1.88;0.65;;;;;;;;;;4991869;28;20098;-38
2021/07/26 13:15:38;;;;;;;2.47;0.52;;;;;;;;;;4990492;28;20175;-38
2021/07/26 13:18:06;;;;;;;8.40;0.70;;;;;;;;;;4989915;28;20508;-36
2021/07/26 13:20:33;;;;;;;3.25;0.70;;;;;;;;;;4992276;28;20076;-36
2021/07/26 13:23:00;;;;;;;4.32;0.73;;;;;;;;;;4991802;28;20193;-36
2021/07/26 13:25:27;;;;;;;5.47;1.10;;;;;;;;;;4987183;28;20015;-36
2021/07/26 13:27:55;;;;;;;1.92;0.50;;;;;;;;;;4987738;28;20408;-36
2021/07/26 13:30:22;;;;;;;4.95;0.73;;;;;;;;;;4986440;28;20419;-37
2021/07/26 13:32:51;;;;;;;7.30;0.90;;;;;;;;;;4989894;28;20395;-35
2021/07/26 13:35:19;;;;;;;9.02;1.10;;;;;;;;;;4990268;28;20022;-36
2021/07/26 13:37:46;;;;;;;4.00;0.70;;;;;;;;;;4989329;28;20045;-36
2021/07/26 13:40:14;;;;;;;7.07;0.80;;;;;;;;;;4989216;28;20503;-36
2021/07/26 13:42:46;;;;;;;7.65;2.08;;;;;;;;;;4987120;28;20050;-37
2021/07/26 13:45:13;;;;;;;2.65;0.63;;;;;;;;;;4986478;28;20018;-37
2021/07/26 13:47:40;;;;;;;6.15;0.82;;;;;;;;;;4988839;28;20701;-39
2021/07/26 13:50:10;;;;;;;3.88;0.65;;;;;;;;;;4989603;28;20033;-35
2021/07/26 13:52:38;;;;;;;5.13;0.70;;;;;;;;;;4978033;28;20121;-36
2021/07/26 13:55:06;;;;;;;7.18;0.93;;;;;;;;;;4985485;28;20026;-37
2021/07/26 13:57:33;;;;;;;1.88;0.80;;;;;;;;;;4981316;28;20395;-37
2021/07/26 14:00:00;;;;;;;8.05;1.02;;;;;;;;;;4985765;28;20098;-39
2021/07/26 14:02:27;;;;;;;8.68;0.80;;;;;;;;;;4990340;28;20049;-36
2021/07/26 14:04:56;;;;;;;5.18;0.80;;;;;;;;;;4989005;28;20101;-36
2021/07/26 14:07:23;;;;;;;7.18;0.73;;;;;;;;;;4989945;28;20044;-38
2021/07/26 14:09:51;;;;;;;8.85;0.80;;;;;;;;;;4987838;28;20034;-35
2021/07/26 14:12:18;;;;;;;5.82;0.70;;;;;;;;;;4990246;28;20034;-37
2021/07/26 14:14:45;;;;;;;3.00;0.70;;;;;;;;;;4989053;28;20759;-35
2021/07/26 14:17:12;;;;;;;4.32;0.57;;;;;;;;;;4988384;28;20478;-36
2021/07/26 14:19:39;;;;;;;7.03;0.95;;;;;;;;;;4984266;28;20045;-38
2021/07/26 14:22:06;;;;;;;4.20;0.70;;;;;;;;;;4990102;28;20019;-36
2021/07/26 14:24:33;;;;;;;8.77;1.10;;;;;;;;;;4991009;28;20014;-35
2021/07/26 14:27:00;;;;;;;7.03;0.70;;;;;;;;;;4987115;28;20042;-37
2021/07/26 14:29:28;;;;;;;6.72;0.95;;;;;;;;;;4992177;28;20030;-39
2021/07/26 14:31:55;;;;;;;9.85;1.10;;;;;;;;;;4989050;28;20034;-39
2021/07/26 14:34:22;;;;;;;4.63;0.70;;;;;;;;;;4989807;28;20054;-40
2021/07/26 14:36:49;;;;;;;13.10;0.80;;;;;;;;;;4989592;28;20101;-40
2021/07/26 14:39:19;;;;;;;3.05;0.60;;;;;;;;;;4987728;28;20026;-39
2021/07/26 14:41:46;;;;;;;12.50;1.25;;;;;;;;;;4986355;28;20105;-39
2021/07/26 14:44:13;;;;;;;9.48;1.00;;;;;;;;;;4990202;28;20030;-40
2021/07/26 14:46:40;;;;;;;8.02;1.10;;;;;;;;;;4990074;28;20045;-41